Time;durP1;ratioP1;P1;durP2;ratioP2;P2;SDS_P1;SDS_P2;PMS_P1;PMS_P2;Temp;Humidity;BMP_temperature;BMP_pressure;BME280_temperature;BME280_humidity;BME280_pressure;Samples;Min_cycle;Max_cycle;Signal;HPM_P1;HPM_P2
2023/02/02 00:01:59;;;;;;;8.10;2.08;;;;;;;4.08;89.59;97871.69;5052231;28;20072;-63
2023/02/02 00:04:29;;;;;;;8.40;1.90;;;;;;;4.10;89.20;97864.28;5049650;28;20047;-62
2023/02/02 00:06:59;;;;;;;9.00;1.88;;;;;;;4.11;89.41;97857.06;5057573;28;20083;-63
2023/02/02 00:09:30;;;;;;;4.40;1.58;;;;;;;4.13;89.02;97845.09;5055378;28;20049;-62
2023/02/02 00:11:58;;;;;;;5.85;1.50;;;;;;;4.15;89.00;97844.91;5057894;28;20048;-62
2023/02/02 00:14:24;;;;;;;6.25;1.77;;;;;;;4.02;89.82;97843.81;5059991;28;20060;-62
2023/02/02 00:16:55;;;;;;;7.95;1.50;;;;;;;4.12;89.25;97851.50;5055982;28;20119;-62
2023/02/02 00:19:25;;;;;;;8.02;2.20;;;;;;;4.10;90.20;97847.38;5058435;28;20119;-63
2023/02/02 00:21:53;;;;;;;8.60;2.45;;;;;;;4.08;90.68;97860.13;5056304;28;20116;-63
2023/02/02 00:24:20;;;;;;;8.95;2.03;;;;;;;4.02;90.95;97848.38;5056790;28;20043;-63
2023/02/02 00:26:50;;;;;;;5.70;1.80;;;;;;;4.00;91.43;97867.31;5056136;28;20611;-63
2023/02/02 00:29:23;;;;;;;9.02;1.92;;;;;;;4.05;91.26;97864.03;5051200;28;20068;-63
2023/02/02 00:31:50;;;;;;;4.97;1.63;;;;;;;4.05;91.75;97850.63;5059321;28;20644;-62
2023/02/02 00:34:17;;;;;;;9.07;1.92;;;;;;;4.02;91.87;97862.56;5055471;28;20049;-63
2023/02/02 00:36:46;;;;;;;6.72;1.80;;;;;;;4.07;91.99;97869.19;5056533;28;20105;-63
2023/02/02 00:39:17;;;;;;;10.15;2.88;;;;;;;4.04;92.08;97859.69;5057903;28;20070;-63
2023/02/02 00:41:44;;;;;;;5.20;1.75;;;;;;;4.06;91.90;97862.19;5058898;28;20045;-63
2023/02/02 00:46:55;;;;;;;5.20;2.08;;;;;;;4.02;92.60;97861.75;5057012;28;20041;-63
2023/02/02 00:49:22;;;;;;;6.00;1.42;;;;;;;4.04;92.28;97848.97;5053924;28;20129;-63
2023/02/02 00:51:49;;;;;;;8.80;1.50;;;;;;;4.05;92.75;97860.53;5058266;28;20072;-63
2023/02/02 00:54:15;;;;;;;13.23;1.63;;;;;;;3.98;93.71;97850.59;5052132;28;20094;-63
2023/02/02 00:56:42;;;;;;;9.77;2.17;;;;;;;4.09;92.89;97848.41;5061251;28;20079;-63
2023/02/02 00:59:10;;;;;;;10.05;2.70;;;;;;;4.03;93.17;97847.34;5051770;28;20029;-63
2023/02/02 01:01:36;;;;;;;5.10;1.23;;;;;;;4.04;93.62;97840.94;5053753;28;20048;-63
2023/02/02 01:04:03;;;;;;;8.32;1.63;;;;;;;4.01;94.55;97852.03;5058424;28;20427;-63
2023/02/02 01:06:30;;;;;;;5.18;1.17;;;;;;;3.97;95.14;97851.63;5056483;28;20039;-63
2023/02/02 01:08:56;;;;;;;5.70;1.35;;;;;;;3.97;95.35;97838.22;5057514;28;20048;-63
2023/02/02 01:11:24;;;;;;;4.03;1.75;;;;;;;3.85;97.24;97882.66;5055373;28;20083;-62
2023/02/02 01:13:52;;;;;;;8.07;2.35;;;;;;;3.77;98.20;97856.88;5061775;28;20119;-62
2023/02/02 01:16:21;;;;;;;7.35;1.90;;;;;;;3.80;98.60;97840.41;5056922;28;20415;-62
2023/02/02 01:18:48;;;;;;;6.00;2.22;;;;;;;3.73;99.92;97864.44;5061517;28;20068;-63
2023/02/02 01:21:15;;;;;;;10.10;2.33;;;;;;;3.70;100.00;97854.16;5058293;28;20044;-62
2023/02/02 01:23:41;;;;;;;11.18;2.30;;;;;;;3.66;100.00;97857.41;5051426;28;20519;-63
2023/02/02 01:26:10;;;;;;;16.50;2.58;;;;;;;3.66;100.00;97862.75;5061119;28;20025;-62
2023/02/02 01:28:37;;;;;;;5.60;1.90;;;;;;;3.63;100.00;97847.91;5053795;28;20813;-62
2023/02/02 01:31:08;;;;;;;8.73;2.63;;;;;;;3.60;100.00;97856.31;5058896;28;20129;-63
2023/02/02 01:33:35;;;;;;;7.70;1.80;;;;;;;3.63;100.00;97858.63;5055165;28;20052;-63
2023/02/02 01:36:07;;;;;;;10.80;2.17;;;;;;;3.61;100.00;97853.44;5062786;28;20278;-63
2023/02/02 01:38:34;;;;;;;10.38;2.03;;;;;;;3.64;100.00;97862.94;5059354;28;20076;-63
2023/02/02 01:41:03;;;;;;;9.00;3.47;;;;;;;3.70;100.00;97864.03;5056396;28;20049;-62
2023/02/02 01:43:42;;;;;;;9.27;2.47;;;;;;;3.76;100.00;97860.56;5058874;28;20474;-62
2023/02/02 01:46:19;;;;;;;9.02;2.58;;;;;;;3.75;100.00;97854.38;5057264;28;20048;-63
2023/02/02 01:48:50;;;;;;;7.53;2.55;;;;;;;3.81;100.00;97851.94;5057460;28;20045;-62
2023/02/02 01:51:24;;;;;;;8.90;3.63;;;;;;;3.76;100.00;97845.31;5056649;28;20068;-62
2023/02/02 01:53:53;;;;;;;8.57;2.03;;;;;;;3.74;100.00;97836.66;5055149;28;20036;-63
2023/02/02 01:56:29;;;;;;;6.43;1.48;;;;;;;3.86;99.37;97844.97;5056604;28;20043;-63
2023/02/02 01:58:58;;;;;;;6.20;2.03;;;;;;;3.87;99.46;97822.50;5057880;28;20033;-63
2023/02/02 02:01:25;;;;;;;6.22;1.92;;;;;;;3.86;99.58;97870.91;5057062;28;20072;-63
2023/02/02 02:03:52;;;;;;;7.60;2.25;;;;;;;3.89;99.46;97827.66;5059597;28;20040;-63
2023/02/02 02:06:19;;;;;;;6.55;1.92;;;;;;;3.93;99.53;97830.78;5052844;28;20044;-63
2023/02/02 02:08:51;;;;;;;4.80;1.80;;;;;;;3.88;99.56;97831.38;5051405;28;20043;-63
2023/02/02 02:11:19;;;;;;;5.78;1.77;;;;;;;3.96;99.00;97835.75;5053201;28;20048;-63
2023/02/02 02:16:51;;;;;;;6.68;2.00;;;;;;;3.94;99.33;97832.44;5058109;28;20036;-63
2023/02/02 02:28:43;;;;;;;10.25;2.67;;;;;;;3.76;100.00;97831.91;5045889;28;20045;-63
2023/02/02 02:31:31;;;;;;;5.15;1.83;;;;;;;3.75;100.00;97822.25;5049648;28;20036;-63
2023/02/02 02:34:16;;;;;;;8.15;2.50;;;;;;;3.75;100.00;97819.56;5051902;28;20434;-63
2023/02/02 02:37:28;;;;;;;14.07;2.72;;;;;;;3.63;100.00;97826.47;5056669;28;20148;-63
2023/02/02 02:40:09;;;;;;;7.00;2.28;;;;;;;3.67;100.00;97827.75;5012695;28;20753;-63
2023/02/02 02:42:42;;;;;;;8.18;2.25;;;;;;;3.67;100.00;97841.13;5054999;28;20060;-63
2023/02/02 02:45:11;;;;;;;7.20;2.13;;;;;;;3.72;100.00;97836.00;5065261;28;20052;-63
2023/02/02 02:47:40;;;;;;;6.95;1.77;;;;;;;3.78;100.00;97823.69;5058853;28;20049;-62
2023/02/02 02:50:07;;;;;;;7.03;2.38;;;;;;;3.82;100.00;97818.75;5064635;28;20127;-63
2023/02/02 02:52:35;;;;;;;5.35;2.38;;;;;;;3.75;100.00;97827.59;5057034;28;20036;-62
2023/02/02 02:55:05;;;;;;;12.40;2.38;;;;;;;3.77;100.00;97824.72;5056754;28;20036;-62
2023/02/02 02:58:02;;;;;;;10.48;2.58;;;;;;;3.73;100.00;97859.09;5057953;28;20114;-63
2023/02/02 03:00:36;;;;;;;6.85;2.22;;;;;;;3.85;100.00;97851.34;5055551;28;20055;-62
2023/02/02 03:03:19;;;;;;;6.80;2.38;;;;;;;3.92;100.00;97853.22;5056119;28;20399;-62
2023/02/02 03:05:48;;;;;;;10.88;2.97;;;;;;;3.82;100.00;97850.91;5065350;28;20082;-62
2023/02/02 03:08:31;;;;;;;10.38;1.77;;;;;;;3.93;99.85;97845.00;5068402;28;20607;-62
2023/02/02 03:11:01;;;;;;;5.20;1.50;;;;;;;3.88;100.00;97855.50;5065229;28;20044;-62
2023/02/02 03:13:29;;;;;;;7.47;1.80;;;;;;;3.88;100.00;97866.22;5062860;28;20036;-62
2023/02/02 03:15:56;;;;;;;4.53;1.77;;;;;;;3.93;99.88;97877.16;5064131;28;20062;-62
2023/02/02 03:18:27;;;;;;;5.82;2.47;;;;;;;3.88;100.00;97850.13;5057257;28;20044;-62
2023/02/02 03:20:54;;;;;;;6.68;1.88;;;;;;;3.90;100.00;97866.81;5061492;28;20068;-62
2023/02/02 03:23:21;;;;;;;7.03;1.90;;;;;;;3.87;100.00;97876.09;5058392;28;20033;-62
2023/02/02 03:25:47;;;;;;;12.05;2.10;;;;;;;3.91;100.00;97863.16;5057889;28;20044;-62
2023/02/02 03:28:16;;;;;;;9.52;2.67;;;;;;;3.92;100.00;97855.91;5059730;28;20067;-62
2023/02/02 03:30:44;;;;;;;6.20;2.20;;;;;;;3.88;100.00;97850.13;5059586;28;20067;-62
2023/02/02 03:33:12;;;;;;;7.07;2.33;;;;;;;3.90;100.00;97851.59;5060677;28;20048;-62
2023/02/02 03:35:39;;;;;;;9.75;2.78;;;;;;;3.90;100.00;97856.09;5057877;28;20033;-62
2023/02/02 03:38:06;;;;;;;7.18;3.25;;;;;;;3.94;100.00;97868.09;5067512;28;20147;-62
2023/02/02 03:40:33;;;;;;;10.32;2.40;;;;;;;3.92;100.00;97867.47;5058019;28;20047;-62
2023/02/02 03:42:59;;;;;;;5.38;1.85;;;;;;;4.03;99.81;97866.09;5062238;28;20044;-62
2023/02/02 03:45:27;;;;;;;7.72;1.70;;;;;;;3.96;100.00;97868.72;5060994;28;20037;-62
2023/02/02 03:47:53;;;;;;;5.47;1.70;;;;;;;4.02;99.73;97867.13;5067678;28;20045;-62
2023/02/02 03:50:20;;;;;;;8.50;2.22;;;;;;;3.96;100.00;97875.94;5063793;28;20050;-62
2023/02/02 03:52:47;;;;;;;5.68;1.65;;;;;;;4.00;99.84;97870.00;5062807;28;20606;-62
2023/02/02 03:55:13;;;;;;;7.72;2.67;;;;;;;3.96;100.00;97890.16;5062564;28;20098;-62
2023/02/02 03:57:40;;;;;;;9.45;2.10;;;;;;;3.98;99.98;97896.16;5064831;28;20131;-62
2023/02/02 04:00:07;;;;;;;7.57;1.70;;;;;;;4.03;99.59;97877.63;5059278;28;20040;-62
2023/02/02 04:02:37;;;;;;;9.25;2.05;;;;;;;3.99;100.00;97879.06;5057097;28;20494;-62
2023/02/02 04:05:04;;;;;;;5.85;2.03;;;;;;;4.03;99.76;97906.28;5061547;28;20036;-62
2023/02/02 04:07:31;;;;;;;5.78;2.20;;;;;;;4.06;99.71;97883.63;5062166;28;20043;-62
2023/02/02 04:09:57;;;;;;;6.63;1.75;;;;;;;4.03;99.99;97887.53;5058562;28;20157;-62
2023/02/02 04:12:24;;;;;;;6.45;2.05;;;;;;;3.99;100.00;97876.38;5057670;28;20072;-62
2023/02/02 04:14:50;;;;;;;8.43;2.75;;;;;;;3.91;100.00;97865.81;5062529;28;20041;-62
2023/02/02 04:17:16;;;;;;;4.75;1.77;;;;;;;3.97;100.00;97881.09;5063648;28;20071;-61
2023/02/02 04:19:43;;;;;;;8.52;2.40;;;;;;;3.96;100.00;97867.91;5070262;28;20146;-62
2023/02/02 04:22:09;;;;;;;6.82;1.98;;;;;;;3.96;100.00;97870.56;5057943;28;20037;-62
2023/02/02 04:24:36;;;;;;;3.55;2.13;;;;;;;3.99;100.00;97871.03;5059572;28;20068;-61
2023/02/02 04:27:03;;;;;;;3.78;1.95;;;;;;;4.00;100.00;97864.63;5060834;28;20047;-62
2023/02/02 04:29:30;;;;;;;10.55;2.53;;;;;;;3.98;100.00;97873.91;5058544;28;20060;-62
2023/02/02 04:31:56;;;;;;;6.50;2.10;;;;;;;4.02;100.00;97883.19;5053014;28;20044;-62
2023/02/02 04:34:23;;;;;;;11.18;3.35;;;;;;;3.99;100.00;97870.19;5058223;28;20036;-62
2023/02/02 04:36:49;;;;;;;8.05;2.47;;;;;;;4.08;99.66;97892.28;5069121;28;20047;-62
2023/02/02 04:39:16;;;;;;;5.68;1.50;;;;;;;4.13;99.20;97885.31;5057527;28;20040;-63
2023/02/02 04:41:42;;;;;;;10.13;2.70;;;;;;;4.01;100.00;97897.59;5062739;28;20109;-62
2023/02/02 04:44:13;;;;;;;9.13;2.42;;;;;;;3.97;100.00;97886.47;5067263;28;20044;-63
2023/02/02 04:46:41;;;;;;;11.73;2.65;;;;;;;3.98;100.00;97887.31;5068536;28;20123;-63
2023/02/02 04:49:10;;;;;;;5.82;2.22;;;;;;;4.09;99.92;97892.09;5067070;28;20504;-62
2023/02/02 04:51:38;;;;;;;9.02;2.90;;;;;;;4.00;100.00;97899.47;5073173;28;20419;-62
2023/02/02 04:54:06;;;;;;;4.43;1.58;;;;;;;4.07;100.00;97901.34;5067887;28;20041;-62
2023/02/02 04:56:33;;;;;;;5.50;1.95;;;;;;;4.08;100.00;97908.34;5061703;28;20055;-63
2023/02/02 04:58:59;;;;;;;11.10;2.58;;;;;;;4.01;100.00;97913.69;5062767;28;20123;-62
2023/02/02 05:01:26;;;;;;;10.90;3.08;;;;;;;4.00;100.00;97907.50;5064297;28;20540;-62
2023/02/02 05:03:53;;;;;;;8.63;1.92;;;;;;;4.07;100.00;97912.06;5064580;28;20550;-62
2023/02/02 05:06:20;;;;;;;8.30;2.70;;;;;;;4.06;100.00;97916.63;5068413;28;20040;-62
2023/02/02 05:08:47;;;;;;;7.18;2.00;;;;;;;4.17;99.50;97915.25;5072086;28;20059;-62
2023/02/02 05:11:17;;;;;;;6.88;2.13;;;;;;;4.22;99.21;97915.47;5073575;28;20036;-62
2023/02/02 05:13:46;;;;;;;10.02;2.13;;;;;;;4.12;99.55;97926.53;5070158;28;20047;-62
2023/02/02 05:16:12;;;;;;;6.47;2.00;;;;;;;4.18;99.53;97929.47;5075679;28;20036;-61
2023/02/02 05:18:40;;;;;;;14.52;2.60;;;;;;;4.18;99.48;97919.56;5069982;28;20048;-61
2023/02/02 05:21:07;;;;;;;6.07;1.95;;;;;;;4.24;99.26;97934.03;5066791;28;20117;-62
2023/02/02 05:23:34;;;;;;;6.25;2.13;;;;;;;4.26;98.82;97922.09;5070476;28;20036;-62
2023/02/02 05:26:00;;;;;;;5.78;1.92;;;;;;;4.20;99.19;97946.19;5075426;28;20459;-62
2023/02/02 05:28:28;;;;;;;7.47;2.42;;;;;;;4.26;98.43;97930.13;5070171;28;20036;-62
2023/02/02 05:30:54;;;;;;;12.70;2.50;;;;;;;4.31;98.46;97929.53;5070276;28;20037;-62
2023/02/02 05:33:21;;;;;;;14.35;2.38;;;;;;;4.25;98.61;97952.63;5063773;28;20057;-62
2023/02/02 05:35:48;;;;;;;11.88;2.58;;;;;;;4.30;97.96;97927.88;5058713;28;20035;-62
2023/02/02 05:38:15;;;;;;;6.45;2.22;;;;;;;4.27;98.01;97947.88;5073011;28;20548;-62
2023/02/02 05:40:42;;;;;;;5.15;2.00;;;;;;;4.35;97.79;97959.47;5063401;28;20472;-62
2023/02/02 05:43:08;;;;;;;6.78;2.13;;;;;;;4.26;98.60;97945.38;5062943;28;20542;-62
2023/02/02 05:45:35;;;;;;;9.35;2.00;;;;;;;4.25;98.64;97963.34;5056042;28;20045;-64
2023/02/02 05:48:01;;;;;;;4.88;1.98;;;;;;;4.27;98.44;97949.72;5055990;28;20045;-62
2023/02/02 05:50:28;;;;;;;9.95;2.95;;;;;;;4.25;98.79;97971.38;5061117;28;20056;-61
2023/02/02 05:53:02;;;;;;;6.35;2.20;;;;;;;4.27;98.95;97958.59;5060857;28;20037;-61
2023/02/02 05:55:29;;;;;;;8.98;2.60;;;;;;;4.29;98.51;97953.88;5061819;28;20032;-61
2023/02/02 05:57:55;;;;;;;7.72;2.60;;;;;;;4.33;98.36;97959.66;5063992;28;20041;-61
2023/02/02 06:00:22;;;;;;;9.98;3.70;;;;;;;4.31;98.16;97961.69;5061718;28;20045;-61
2023/02/02 06:02:48;;;;;;;6.30;1.95;;;;;;;4.31;98.32;97955.53;5057082;28;20040;-61
2023/02/02 06:05:15;;;;;;;7.82;2.20;;;;;;;4.30;98.49;97962.72;5055182;28;20071;-61
2023/02/02 06:07:41;;;;;;;9.60;2.70;;;;;;;4.33;98.24;97961.50;5060122;28;20120;-61
2023/02/02 06:10:08;;;;;;;7.43;2.00;;;;;;;4.37;98.08;97966.28;5059026;28;20097;-61
2023/02/02 06:12:35;;;;;;;8.88;2.22;;;;;;;4.37;98.39;97971.66;5056974;28;20048;-61
2023/02/02 06:15:01;;;;;;;10.60;2.60;;;;;;;4.36;98.15;97961.13;5056609;28;20058;-61
2023/02/02 06:17:28;;;;;;;7.13;2.40;;;;;;;4.28;99.03;97962.94;5054150;28;20036;-61
2023/02/02 06:19:54;;;;;;;7.47;2.10;;;;;;;4.20;99.42;97967.63;5053004;28;20032;-61
2023/02/02 06:22:22;;;;;;;9.63;3.28;;;;;;;4.26;99.05;97973.03;5058057;28;20066;-62
2023/02/02 06:24:48;;;;;;;7.03;1.95;;;;;;;4.32;98.54;97967.91;5053092;28;21173;-61
2023/02/02 06:27:15;;;;;;;7.13;2.55;;;;;;;4.23;99.41;97972.56;5057026;28;20126;-62
2023/02/02 06:29:41;;;;;;;9.73;2.45;;;;;;;4.32;98.53;97974.09;5050640;28;20129;-61
2023/02/02 06:32:07;;;;;;;6.90;2.08;;;;;;;4.35;98.52;97978.25;5062337;28;20123;-61
2023/02/02 06:34:34;;;;;;;6.55;1.67;;;;;;;4.34;98.66;97976.56;5068063;28;20106;-61
2023/02/02 06:37:01;;;;;;;6.00;2.20;;;;;;;4.22;99.35;97979.81;5071882;28;20480;-61
2023/02/02 06:39:27;;;;;;;13.15;3.10;;;;;;;4.29;99.07;97986.06;5078483;28;20106;-62
2023/02/02 06:41:54;;;;;;;9.40;3.70;;;;;;;4.20;99.44;97976.47;5061219;28;20090;-61
2023/02/02 06:44:20;;;;;;;9.93;3.72;;;;;;;4.21;99.97;97980.84;5067702;28;20068;-61
2023/02/02 06:46:46;;;;;;;7.47;2.38;;;;;;;4.24;99.53;97969.72;5063554;28;20055;-61
2023/02/02 06:49:13;;;;;;;6.65;2.00;;;;;;;4.27;100.00;97977.34;5057864;28;20703;-62
2023/02/02 06:51:40;;;;;;;6.93;1.92;;;;;;;4.28;99.60;97992.41;5058437;28;20052;-58
2023/02/02 06:54:06;;;;;;;5.72;1.75;;;;;;;4.26;99.45;97996.31;5063085;28;20044;-60
2023/02/02 06:56:33;;;;;;;6.53;1.90;;;;;;;4.22;99.45;97979.81;5063241;28;20036;-59
2023/02/02 06:58:59;;;;;;;6.82;2.38;;;;;;;4.20;99.63;97994.44;5063000;28;20041;-59
2023/02/02 07:01:26;;;;;;;5.65;2.10;;;;;;;4.16;99.77;97981.41;5058978;28;20106;-59
2023/02/02 07:03:52;;;;;;;7.50;1.80;;;;;;;4.26;99.08;97986.44;5067294;28;20051;-60
2023/02/02 07:06:21;;;;;;;10.32;3.17;;;;;;;4.26;99.09;97985.59;5063076;28;20036;-60
2023/02/02 07:08:49;;;;;;;6.28;2.40;;;;;;;4.19;99.61;98001.63;5069375;28;20087;-60
2023/02/02 07:11:31;;;;;;;4.93;2.10;;;;;;;4.18;100.00;97997.31;5063975;28;20044;-60
2023/02/02 07:14:03;;;;;;;7.55;2.90;;;;;;;4.17;100.00;98001.03;5063002;28;20441;-60
2023/02/02 07:16:30;;;;;;;8.05;2.20;;;;;;;4.21;99.53;97986.19;5063117;28;20048;-60
2023/02/02 07:18:57;;;;;;;10.40;2.42;;;;;;;4.20;99.69;97992.56;5061926;28;20115;-59
2023/02/02 07:21:28;;;;;;;13.20;3.20;;;;;;;4.21;99.71;97986.19;5061152;28;20547;-60
2023/02/02 07:23:56;;;;;;;8.50;2.40;;;;;;;4.23;99.16;98002.06;5061662;28;20055;-60
2023/02/02 07:26:22;;;;;;;6.15;2.47;;;;;;;4.23;99.10;97994.88;5066322;28;20119;-60
2023/02/02 07:28:50;;;;;;;8.38;2.30;;;;;;;4.33;98.89;97985.63;5063631;28;20472;-58
2023/02/02 07:31:18;;;;;;;10.13;1.88;;;;;;;4.29;98.89;98012.88;5063953;28;20480;-60
2023/02/02 07:33:46;;;;;;;13.10;2.97;;;;;;;4.21;99.29;98004.13;5061449;28;20618;-59
2023/02/02 07:36:17;;;;;;;9.30;2.55;;;;;;;4.27;98.57;98008.69;5062739;28;20082;-60
2023/02/02 07:38:46;;;;;;;7.75;2.20;;;;;;;4.35;97.79;98005.06;5069024;28;20044;-59
2023/02/02 07:41:14;;;;;;;7.10;1.92;;;;;;;4.39;97.37;97999.09;5056082;28;20054;-57
2023/02/02 07:43:41;;;;;;;7.20;2.80;;;;;;;4.32;97.98;97998.22;5054530;28;20114;-60
2023/02/02 07:46:09;;;;;;;5.32;1.92;;;;;;;4.36;97.98;97995.97;5055816;28;20101;-57
2023/02/02 07:48:36;;;;;;;9.32;2.45;;;;;;;4.29;98.04;97987.91;5062103;28;20056;-59
2023/02/02 07:51:05;;;;;;;9.73;2.83;;;;;;;4.29;97.91;97996.78;5060277;28;20048;-65
2023/02/02 07:53:33;;;;;;;8.27;2.97;;;;;;;4.39;97.68;97990.22;5065728;28;20047;-62
2023/02/02 07:56:11;;;;;;;7.60;2.22;;;;;;;4.43;96.71;97986.13;5061717;28;20083;-65
2023/02/02 07:58:37;;;;;;;12.35;2.28;;;;;;;4.47;95.62;97992.75;5062730;28;20052;-61
2023/02/02 08:01:07;;;;;;;6.47;2.72;;;;;;;4.48;96.07;97994.41;5062852;28;20499;-61
2023/02/02 08:03:34;;;;;;;11.52;2.72;;;;;;;4.55;95.29;97994.44;5061245;28;20040;-60
2023/02/02 08:06:18;;;;;;;8.57;2.13;;;;;;;4.54;95.27;98007.03;5065227;28;20132;-60
2023/02/02 08:08:46;;;;;;;10.05;2.17;;;;;;;4.58;94.91;98006.63;5062355;28;20396;-62
2023/02/02 08:11:16;;;;;;;7.65;1.75;;;;;;;4.59;95.11;98002.91;5058335;28;20139;-61
2023/02/02 08:13:43;;;;;;;4.75;1.75;;;;;;;4.70;94.05;98002.38;5068417;28;20503;-62
2023/02/02 08:16:10;;;;;;;10.10;2.95;;;;;;;4.79;93.56;98006.53;5068004;28;20044;-61
2023/02/02 08:18:37;;;;;;;5.47;1.88;;;;;;;4.85;93.34;98002.22;5070909;28;20048;-62
2023/02/02 08:21:07;;;;;;;3.95;1.30;;;;;;;4.87;93.04;97997.47;5065747;28;20056;-61
2023/02/02 08:23:35;;;;;;;4.72;1.70;;;;;;;4.91;93.01;97997.94;5061144;28;20040;-64
2023/02/02 08:26:18;;;;;;;5.65;1.45;;;;;;;4.82;93.08;98003.47;5064239;28;20040;-64
2023/02/02 08:28:47;;;;;;;6.40;1.90;;;;;;;4.76;93.95;98020.34;5068151;28;20430;-62
2023/02/02 08:31:20;;;;;;;5.82;1.70;;;;;;;4.83;93.67;98015.00;5057931;28;20098;-61
2023/02/02 08:33:47;;;;;;;5.53;1.52;;;;;;;4.78;94.15;98033.56;5062175;28;20590;-61
2023/02/02 08:36:15;;;;;;;6.80;2.00;;;;;;;4.88;93.70;98046.63;5060122;28;20527;-61
2023/02/02 08:38:42;;;;;;;8.48;2.22;;;;;;;4.85;93.90;98036.28;5068187;28;20521;-64
2023/02/02 08:41:11;;;;;;;9.13;2.75;;;;;;;4.73;94.88;98052.94;5060767;28;20140;-62
2023/02/02 08:43:39;;;;;;;8.07;2.63;;;;;;;4.65;95.74;98053.09;5062394;28;20064;-62
2023/02/02 08:46:08;;;;;;;10.20;3.00;;;;;;;4.63;96.16;98055.97;5067600;28;20080;-59
2023/02/02 08:48:34;;;;;;;4.63;1.85;;;;;;;4.64;96.27;98067.56;5059312;28;20045;-62
2023/02/02 08:51:02;;;;;;;4.95;1.90;;;;;;;4.68;96.16;98075.00;5061535;28;20048;-62
2023/02/02 08:53:30;;;;;;;8.43;2.63;;;;;;;4.62;97.06;98074.94;5062894;28;20504;-62
2023/02/02 08:55:58;;;;;;;10.82;2.90;;;;;;;4.58;97.77;98090.63;5063262;28;20040;-62
2023/02/02 08:58:25;;;;;;;8.90;3.00;;;;;;;4.55;97.84;98091.84;5066515;28;20208;-62
2023/02/02 09:00:52;;;;;;;9.77;3.15;;;;;;;4.49;98.55;98092.59;5070226;28;20036;-61
2023/02/02 09:03:19;;;;;;;17.15;3.10;;;;;;;4.48;98.94;98090.94;5056817;28;20052;-62
2023/02/02 09:05:46;;;;;;;12.00;3.60;;;;;;;4.46;99.28;98076.91;5064452;28;20111;-62
2023/02/02 09:08:12;;;;;;;6.90;2.40;;;;;;;4.46;99.29;98079.56;5062900;28;20141;-62
2023/02/02 09:10:39;;;;;;;10.80;2.72;;;;;;;4.45;99.19;98090.53;5062876;28;20068;-62
2023/02/02 09:13:05;;;;;;;8.07;2.97;;;;;;;4.48;98.93;98085.59;5062743;28;20051;-63
2023/02/02 09:15:32;;;;;;;5.35;2.05;;;;;;;4.54;98.73;98108.13;5059022;28;20449;-63
2023/02/02 09:17:58;;;;;;;11.25;3.13;;;;;;;4.52;98.89;98075.28;5065800;28;20123;-61
2023/02/02 09:20:24;;;;;;;13.70;3.10;;;;;;;4.48;99.27;98082.91;5058872;28;20648;-64
2023/02/02 09:22:54;;;;;;;6.80;2.25;;;;;;;4.64;98.17;98105.91;5061810;28;20053;-60
2023/02/02 09:25:21;;;;;;;6.97;2.53;;;;;;;4.55;98.73;98077.59;5067235;28;20473;-61
2023/02/02 09:27:48;;;;;;;9.13;3.00;;;;;;;4.54;98.99;98105.44;5066703;28;20189;-61
2023/02/02 09:30:15;;;;;;;9.68;3.08;;;;;;;4.61;98.68;98105.50;5060632;28;20128;-62
2023/02/02 09:32:42;;;;;;;7.88;3.00;;;;;;;4.59;98.74;98097.63;5059157;28;20052;-61
2023/02/02 09:35:08;;;;;;;8.02;2.17;;;;;;;4.50;99.31;98115.72;5058899;28;20040;-61
2023/02/02 09:37:35;;;;;;;9.73;2.85;;;;;;;4.52;99.83;98102.13;5063303;28;20048;-61
2023/02/02 09:40:02;;;;;;;13.93;3.72;;;;;;;4.51;100.00;98109.34;5067487;28;20495;-62
2023/02/02 09:43:05;;;;;;;7.05;2.65;;;;;;;4.45;100.00;98111.97;5060250;28;20044;-62
2023/02/02 09:45:58;;;;;;;13.02;3.60;;;;;;;4.50;100.00;98113.03;5056404;28;20045;-63
2023/02/02 09:48:34;;;;;;;10.93;2.58;;;;;;;4.48;100.00;98115.09;5064598;28;20441;-62
2023/02/02 09:51:08;;;;;;;10.63;2.88;;;;;;;4.49;99.98;98119.41;5050806;28;20041;-63
2023/02/02 09:53:49;;;;;;;9.25;3.72;;;;;;;4.50;99.69;98114.91;5058759;28;20046;-64
2023/02/02 09:56:38;;;;;;;11.05;2.50;;;;;;;4.58;99.65;98122.81;5050317;28;20059;-63
2023/02/02 09:59:11;;;;;;;9.40;2.50;;;;;;;4.60;99.10;98125.28;5053271;28;20045;-62
2023/02/02 10:01:50;;;;;;;8.82;2.72;;;;;;;4.72;98.57;98123.72;5053417;28;20040;-62
2023/02/02 10:04:34;;;;;;;8.80;2.58;;;;;;;4.64;98.84;98122.00;5058115;28;20483;-61
2023/02/02 10:07:09;;;;;;;9.65;2.88;;;;;;;4.66;98.51;98121.81;5055936;28;20040;-65
2023/02/02 10:09:46;;;;;;;6.53;2.42;;;;;;;4.64;98.08;98124.69;5058597;28;20072;-64
2023/02/02 10:12:51;;;;;;;6.03;2.58;;;;;;;4.78;97.92;98114.91;5055759;28;20403;-65
2023/02/02 10:15:34;;;;;;;7.38;1.90;;;;;;;4.80;97.14;98114.69;5055393;28;20053;-64
2023/02/02 10:18:13;;;;;;;9.50;2.33;;;;;;;4.73;97.46;98117.34;5058102;28;20044;-65
2023/02/02 10:20:55;;;;;;;11.95;2.10;;;;;;;4.63;98.47;98127.56;5059282;28;20048;-64
2023/02/02 10:23:25;;;;;;;6.00;1.70;;;;;;;4.76;97.55;98118.81;5059467;28;20041;-60
2023/02/02 10:26:01;;;;;;;6.93;2.33;;;;;;;4.77;97.16;98121.28;5060128;28;20097;-61
2023/02/02 10:28:57;;;;;;;9.35;2.72;;;;;;;4.63;98.08;98125.72;5056862;28;20133;-63
2023/02/02 10:31:32;;;;;;;9.65;2.47;;;;;;;4.71;97.24;98145.41;5059279;28;20553;-64
2023/02/02 10:34:26;;;;;;;7.22;2.03;;;;;;;4.73;97.31;98125.41;5063210;28;20453;-66
2023/02/02 10:37:27;;;;;;;10.05;2.22;;;;;;;4.69;97.97;98121.44;5058363;28;20048;-63
2023/02/02 10:40:30;;;;;;;8.75;2.45;;;;;;;4.86;97.09;98131.88;5040433;28;20071;-65
2023/02/02 10:45:49;;;;;;;5.20;2.53;;;;;;;4.81;96.09;98146.72;5062494;28;20032;-65
2023/02/02 10:48:19;;;;;;;7.43;2.60;;;;;;;4.79;96.91;98138.00;5057827;28;20059;-65
2023/02/02 10:50:53;;;;;;;7.55;2.38;;;;;;;4.98;95.77;98130.31;5062276;28;20041;-65
2023/02/02 10:53:21;;;;;;;6.57;2.30;;;;;;;4.95;96.28;98139.56;5059380;28;20125;-65
2023/02/02 10:55:58;;;;;;;8.70;2.80;;;;;;;4.95;95.69;98152.16;5057668;28;20029;-65
2023/02/02 10:58:33;;;;;;;10.38;2.67;;;;;;;4.91;96.53;98161.63;5056364;28;20044;-62
2023/02/02 11:01:02;;;;;;;4.97;1.80;;;;;;;4.93;96.32;98141.63;5050211;28;20112;-65
2023/02/02 11:03:31;;;;;;;11.25;2.95;;;;;;;4.84;96.83;98158.91;5058077;28;20044;-62
2023/02/02 11:08:48;;;;;;;5.82;2.17;;;;;;;5.04;95.16;98153.66;5060201;28;20312;-63
2023/02/02 11:11:22;;;;;;;6.95;2.05;;;;;;;5.08;95.57;98157.63;5058643;28;20449;-64
2023/02/02 11:13:54;;;;;;;6.18;2.03;;;;;;;5.06;94.64;98140.88;5062737;28;20047;-65
2023/02/02 11:16:25;;;;;;;7.20;2.10;;;;;;;5.18;94.12;98135.78;5056664;28;20037;-62
2023/02/02 11:19:16;;;;;;;10.48;2.58;;;;;;;5.20;93.68;98140.97;5067592;28;20232;-63
2023/02/02 11:21:49;;;;;;;9.05;1.85;;;;;;;5.18;93.93;98133.09;5055745;28;20115;-64
2023/02/02 11:24:27;;;;;;;7.25;2.50;;;;;;;5.13;94.89;98138.25;5059808;28;20087;-64
2023/02/02 11:27:00;;;;;;;5.18;1.88;;;;;;;5.11;94.92;98123.34;5059261;28;20044;-62
2023/02/02 11:29:39;;;;;;;6.13;1.92;;;;;;;5.13;94.96;98134.72;5059589;28;20052;-61
2023/02/02 11:32:38;;;;;;;5.25;1.70;;;;;;;5.04;94.93;98142.94;5058873;28;20491;-62
2023/02/02 11:35:05;;;;;;;4.20;1.45;;;;;;;5.10;94.41;98133.25;5057723;28;20522;-62
2023/02/02 11:37:36;;;;;;;6.38;1.90;;;;;;;5.10;94.34;98138.63;5064348;28;20105;-61
2023/02/02 11:40:22;;;;;;;3.45;1.60;;;;;;;5.08;95.08;98124.56;5073479;28;20130;-61
2023/02/02 11:42:50;;;;;;;6.00;1.75;;;;;;;5.12;93.47;98139.25;5062137;28;20051;-61
2023/02/02 11:45:25;;;;;;;8.10;2.47;;;;;;;5.16;93.51;98119.03;5068979;28;20075;-63
2023/02/02 11:47:51;;;;;;;8.35;2.17;;;;;;;5.09;94.62;98134.28;5065747;28;20088;-62
2023/02/02 11:50:26;;;;;;;5.45;1.40;;;;;;;4.98;95.96;98130.31;5061824;28;20167;-63
2023/02/02 11:52:53;;;;;;;6.30;1.65;;;;;;;5.03;95.33;98117.13;5062679;28;20048;-61
2023/02/02 11:55:27;;;;;;;13.70;2.20;;;;;;;5.06;95.37;98135.50;5067969;28;20510;-63
2023/02/02 11:58:16;;;;;;;3.17;1.55;;;;;;;4.93;95.78;98127.38;5061125;28;20582;-64
2023/02/02 12:00:50;;;;;;;6.72;1.65;;;;;;;4.94;96.24;98123.69;5063358;28;20205;-62
2023/02/02 12:03:37;;;;;;;7.80;2.38;;;;;;;4.86;97.72;98130.00;5059377;28;20040;-62
2023/02/02 12:06:18;;;;;;;7.18;1.92;;;;;;;4.72;99.28;98122.91;5063046;28;20114;-66
2023/02/02 12:08:45;;;;;;;5.05;1.75;;;;;;;4.76;99.08;98118.81;5061978;28;20063;-65
2023/02/02 12:11:32;;;;;;;5.15;1.88;;;;;;;4.71;99.58;98122.06;5062023;28;20422;-63
2023/02/02 12:14:34;;;;;;;7.78;2.00;;;;;;;4.69;100.00;98127.63;5064573;28;20044;-62
2023/02/02 12:17:15;;;;;;;4.60;1.52;;;;;;;4.61;100.00;98125.06;5066095;28;20292;-63